sensor_id;sensor_type;location;lat;lon;timestamp;P1;durP1;ratioP1;P2;durP2;ratioP2
40629;SDS011;26329;40.388;-3.710;2023-08-24T00:01:45;12.40;;;2.92;;
40629;SDS011;26329;40.388;-3.710;2023-08-24T00:11:46;10.07;;;3.42;;
40629;SDS011;26329;40.388;-3.710;2023-08-24T00:21:47;9.68;;;2.30;;
40629;SDS011;26329;40.388;-3.710;2023-08-24T00:31:48;11.18;;;3.08;;
40629;SDS011;26329;40.388;-3.710;2023-08-24T00:41:48;10.50;;;2.88;;
40629;SDS011;26329;40.388;-3.710;2023-08-24T00:51:49;7.25;;;3.38;;
40629;SDS011;26329;40.388;-3.710;2023-08-24T01:01:50;11.85;;;3.08;;
40629;SDS011;26329;40.388;-3.710;2023-08-24T01:11:59;9.65;;;3.78;;
40629;SDS011;26329;40.388;-3.710;2023-08-24T01:32:27;16.88;;;4.03;;
40629;SDS011;26329;40.388;-3.710;2023-08-24T01:42:31;12.55;;;4.22;;
40629;SDS011;26329;40.388;-3.710;2023-08-24T01:52:35;11.70;;;4.72;;
40629;SDS011;26329;40.388;-3.710;2023-08-24T02:02:36;13.38;;;5.60;;
40629;SDS011;26329;40.388;-3.710;2023-08-24T02:12:37;15.07;;;4.88;;
40629;SDS011;26329;40.388;-3.710;2023-08-24T02:22:38;12.32;;;4.25;;
40629;SDS011;26329;40.388;-3.710;2023-08-24T02:32:38;9.25;;;4.72;;
40629;SDS011;26329;40.388;-3.710;2023-08-24T02:42:39;7.68;;;3.65;;
40629;SDS011;26329;40.388;-3.710;2023-08-24T02:52:40;12.63;;;3.95;;
40629;SDS011;26329;40.388;-3.710;2023-08-24T03:02:41;10.32;;;3.75;;
40629;SDS011;26329;40.388;-3.710;2023-08-24T03:12:43;9.43;;;3.70;;
40629;SDS011;26329;40.388;-3.710;2023-08-24T03:22:43;5.65;;;3.55;;
40629;SDS011;26329;40.388;-3.710;2023-08-24T03:32:44;15.00;;;4.18;;
40629;SDS011;26329;40.388;-3.710;2023-08-24T03:42:45;9.25;;;3.05;;
40629;SDS011;26329;40.388;-3.710;2023-08-24T03:52:45;6.32;;;2.80;;
40629;SDS011;26329;40.388;-3.710;2023-08-24T04:02:46;9.25;;;3.35;;
40629;SDS011;26329;40.388;-3.710;2023-08-24T04:12:47;6.30;;;3.45;;
40629;SDS011;26329;40.388;-3.710;2023-08-24T04:22:48;6.32;;;3.10;;
40629;SDS011;26329;40.388;-3.710;2023-08-24T04:32:48;9.60;;;3.25;;
40629;SDS011;26329;40.388;-3.710;2023-08-24T04:42:49;5.20;;;3.35;;
40629;SDS011;26329;40.388;-3.710;2023-08-24T04:52:50;9.65;;;4.15;;
40629;SDS011;26329;40.388;-3.710;2023-08-24T05:02:51;15.07;;;4.25;;
40629;SDS011;26329;40.388;-3.710;2023-08-24T05:12:51;11.90;;;2.95;;
40629;SDS011;26329;40.388;-3.710;2023-08-24T05:22:52;10.07;;;3.53;;
40629;SDS011;26329;40.388;-3.710;2023-08-24T05:32:55;15.10;;;3.88;;
40629;SDS011;26329;40.388;-3.710;2023-08-24T05:52:56;7.53;;;3.28;;
40629;SDS011;26329;40.388;-3.710;2023-08-24T06:02:57;12.95;;;4.85;;
40629;SDS011;26329;40.388;-3.710;2023-08-24T06:12:58;5.65;;;2.72;;
40629;SDS011;26329;40.388;-3.710;2023-08-24T06:22:58;5.85;;;2.60;;
40629;SDS011;26329;40.388;-3.710;2023-08-24T06:32:59;5.20;;;2.28;;
40629;SDS011;26329;40.388;-3.710;2023-08-24T06:43:00;10.13;;;2.53;;
40629;SDS011;26329;40.388;-3.710;2023-08-24T06:53:01;6.95;;;2.40;;
40629;SDS011;26329;40.388;-3.710;2023-08-24T07:03:03;6.55;;;2.60;;
40629;SDS011;26329;40.388;-3.710;2023-08-24T07:13:05;3.35;;;2.67;;
40629;SDS011;26329;40.388;-3.710;2023-08-24T07:23:07;6.80;;;3.03;;
40629;SDS011;26329;40.388;-3.710;2023-08-24T07:33:08;9.13;;;2.42;;
40629;SDS011;26329;40.388;-3.710;2023-08-24T07:43:09;8.50;;;2.53;;
40629;SDS011;26329;40.388;-3.710;2023-08-24T07:53:10;18.80;;;2.15;;
40629;SDS011;26329;40.388;-3.710;2023-08-24T08:03:11;18.27;;;3.33;;
40629;SDS011;26329;40.388;-3.710;2023-08-24T08:13:11;10.18;;;2.55;;
40629;SDS011;26329;40.388;-3.710;2023-08-24T08:23:12;6.90;;;2.35;;
40629;SDS011;26329;40.388;-3.710;2023-08-24T08:33:13;7.20;;;2.30;;
40629;SDS011;26329;40.388;-3.710;2023-08-24T08:43:14;6.05;;;2.22;;
40629;SDS011;26329;40.388;-3.710;2023-08-24T08:53:14;10.43;;;1.80;;
40629;SDS011;26329;40.388;-3.710;2023-08-24T09:03:17;11.93;;;2.33;;
40629;SDS011;26329;40.388;-3.710;2023-08-24T09:13:18;9.57;;;2.28;;
40629;SDS011;26329;40.388;-3.710;2023-08-24T09:23:19;8.63;;;2.17;;
40629;SDS011;26329;40.388;-3.710;2023-08-24T09:33:20;5.57;;;1.83;;
40629;SDS011;26329;40.388;-3.710;2023-08-24T09:43:25;10.20;;;2.50;;
40629;SDS011;26329;40.388;-3.710;2023-08-24T09:53:32;13.05;;;2.80;;
40629;SDS011;26329;40.388;-3.710;2023-08-24T10:03:36;12.43;;;2.53;;
40629;SDS011;26329;40.388;-3.710;2023-08-24T10:23:49;11.57;;;3.00;;
40629;SDS011;26329;40.388;-3.710;2023-08-24T10:33:50;16.30;;;2.60;;
40629;SDS011;26329;40.388;-3.710;2023-08-24T10:43:52;14.30;;;2.42;;
40629;SDS011;26329;40.388;-3.710;2023-08-24T10:54:06;20.35;;;2.22;;
40629;SDS011;26329;40.388;-3.710;2023-08-24T11:04:07;8.63;;;2.22;;
40629;SDS011;26329;40.388;-3.710;2023-08-24T11:14:15;9.18;;;2.10;;
40629;SDS011;26329;40.388;-3.710;2023-08-24T11:24:22;7.88;;;2.25;;
40629;SDS011;26329;40.388;-3.710;2023-08-24T11:34:25;11.82;;;2.53;;
40629;SDS011;26329;40.388;-3.710;2023-08-24T11:44:26;13.55;;;2.10;;
40629;SDS011;26329;40.388;-3.710;2023-08-24T11:54:27;7.35;;;1.50;;
40629;SDS011;26329;40.388;-3.710;2023-08-24T12:04:28;10.50;;;2.90;;
40629;SDS011;26329;40.388;-3.710;2023-08-24T12:14:44;6.88;;;1.67;;
40629;SDS011;26329;40.388;-3.710;2023-08-24T12:24:46;14.65;;;3.17;;
40629;SDS011;26329;40.388;-3.710;2023-08-24T12:34:47;8.32;;;2.30;;
40629;SDS011;26329;40.388;-3.710;2023-08-24T12:44:47;7.85;;;2.00;;
40629;SDS011;26329;40.388;-3.710;2023-08-24T12:54:48;6.18;;;1.80;;
40629;SDS011;26329;40.388;-3.710;2023-08-24T13:04:49;14.82;;;2.03;;
40629;SDS011;26329;40.388;-3.710;2023-08-24T13:14:49;9.32;;;1.95;;
40629;SDS011;26329;40.388;-3.710;2023-08-24T13:24:50;8.70;;;2.10;;
40629;SDS011;26329;40.388;-3.710;2023-08-24T13:34:51;7.70;;;1.77;;
40629;SDS011;26329;40.388;-3.710;2023-08-24T13:44:52;6.63;;;1.17;;
40629;SDS011;26329;40.388;-3.710;2023-08-24T13:54:52;3.80;;;1.35;;
40629;SDS011;26329;40.388;-3.710;2023-08-24T14:04:53;10.13;;;1.38;;
40629;SDS011;26329;40.388;-3.710;2023-08-24T14:14:54;4.55;;;1.70;;
40629;SDS011;26329;40.388;-3.710;2023-08-24T14:24:54;6.15;;;0.95;;
40629;SDS011;26329;40.388;-3.710;2023-08-24T14:34:55;4.95;;;0.85;;
40629;SDS011;26329;40.388;-3.710;2023-08-24T14:44:56;4.72;;;1.17;;
40629;SDS011;26329;40.388;-3.710;2023-08-24T14:54:58;2.25;;;1.30;;
40629;SDS011;26329;40.388;-3.710;2023-08-24T15:04:58;9.35;;;1.55;;
40629;SDS011;26329;40.388;-3.710;2023-08-24T15:15:00;7.15;;;1.45;;
40629;SDS011;26329;40.388;-3.710;2023-08-24T15:25:03;3.85;;;1.13;;
40629;SDS011;26329;40.388;-3.710;2023-08-24T15:35:04;4.03;;;1.13;;
40629;SDS011;26329;40.388;-3.710;2023-08-24T15:45:05;10.48;;;1.27;;
40629;SDS011;26329;40.388;-3.710;2023-08-24T15:55:07;6.78;;;1.30;;
40629;SDS011;26329;40.388;-3.710;2023-08-24T16:05:08;6.35;;;0.90;;
40629;SDS011;26329;40.388;-3.710;2023-08-24T16:15:09;5.88;;;1.17;;
40629;SDS011;26329;40.388;-3.710;2023-08-24T16:25:10;6.53;;;1.10;;
40629;SDS011;26329;40.388;-3.710;2023-08-24T16:35:11;9.43;;;1.10;;
40629;SDS011;26329;40.388;-3.710;2023-08-24T16:45:11;1.60;;;0.60;;
40629;SDS011;26329;40.388;-3.710;2023-08-24T16:55:12;4.85;;;0.93;;
40629;SDS011;26329;40.388;-3.710;2023-08-24T17:05:13;2.20;;;1.00;;
40629;SDS011;26329;40.388;-3.710;2023-08-24T17:15:14;5.90;;;1.58;;
40629;SDS011;26329;40.388;-3.710;2023-08-24T17:25:15;6.05;;;1.50;;
40629;SDS011;26329;40.388;-3.710;2023-08-24T17:35:16;4.88;;;1.98;;
40629;SDS011;26329;40.388;-3.710;2023-08-24T17:45:16;8.90;;;1.23;;
40629;SDS011;26329;40.388;-3.710;2023-08-24T17:55:21;9.23;;;2.13;;
40629;SDS011;26329;40.388;-3.710;2023-08-24T18:05:22;4.35;;;1.63;;
40629;SDS011;26329;40.388;-3.710;2023-08-24T18:15:23;8.82;;;2.03;;
40629;SDS011;26329;40.388;-3.710;2023-08-24T18:25:25;6.13;;;1.20;;
40629;SDS011;26329;40.388;-3.710;2023-08-24T18:35:27;14.63;;;2.50;;
40629;SDS011;26329;40.388;-3.710;2023-08-24T18:45:28;3.13;;;1.40;;
40629;SDS011;26329;40.388;-3.710;2023-08-24T18:55:29;7.38;;;3.38;;
40629;SDS011;26329;40.388;-3.710;2023-08-24T19:05:30;4.57;;;1.52;;
40629;SDS011;26329;40.388;-3.710;2023-08-24T19:15:32;12.63;;;2.75;;
40629;SDS011;26329;40.388;-3.710;2023-08-24T19:25:33;12.18;;;2.25;;
40629;SDS011;26329;40.388;-3.710;2023-08-24T19:35:33;4.75;;;2.40;;
40629;SDS011;26329;40.388;-3.710;2023-08-24T19:45:37;6.55;;;1.92;;
40629;SDS011;26329;40.388;-3.710;2023-08-24T19:55:38;8.13;;;1.92;;
40629;SDS011;26329;40.388;-3.710;2023-08-24T20:05:39;9.73;;;1.60;;
40629;SDS011;26329;40.388;-3.710;2023-08-24T20:15:40;12.13;;;2.60;;
40629;SDS011;26329;40.388;-3.710;2023-08-24T20:25:42;9.82;;;2.53;;
40629;SDS011;26329;40.388;-3.710;2023-08-24T20:35:43;14.93;;;2.00;;
40629;SDS011;26329;40.388;-3.710;2023-08-24T20:45:43;16.75;;;2.95;;
40629;SDS011;26329;40.388;-3.710;2023-08-24T20:55:44;17.33;;;3.25;;
40629;SDS011;26329;40.388;-3.710;2023-08-24T21:05:45;13.60;;;3.13;;
40629;SDS011;26329;40.388;-3.710;2023-08-24T21:15:46;10.95;;;2.40;;
40629;SDS011;26329;40.388;-3.710;2023-08-24T21:25:46;10.68;;;2.70;;
40629;SDS011;26329;40.388;-3.710;2023-08-24T21:35:47;10.80;;;2.50;;
40629;SDS011;26329;40.388;-3.710;2023-08-24T21:45:54;11.00;;;3.03;;
40629;SDS011;26329;40.388;-3.710;2023-08-24T21:55:56;10.90;;;2.15;;
40629;SDS011;26329;40.388;-3.710;2023-08-24T22:05:57;12.45;;;2.53;;
40629;SDS011;26329;40.388;-3.710;2023-08-24T22:15:59;10.13;;;2.92;;
40629;SDS011;26329;40.388;-3.710;2023-08-24T22:26:00;7.78;;;2.38;;
40629;SDS011;26329;40.388;-3.710;2023-08-24T22:36:03;35.95;;;15.35;;
40629;SDS011;26329;40.388;-3.710;2023-08-24T22:46:04;21.17;;;7.53;;
40629;SDS011;26329;40.388;-3.710;2023-08-24T22:56:04;24.23;;;8.27;;
40629;SDS011;26329;40.388;-3.710;2023-08-24T23:06:05;25.15;;;6.47;;
40629;SDS011;26329;40.388;-3.710;2023-08-24T23:16:06;27.00;;;3.85;;
40629;SDS011;26329;40.388;-3.710;2023-08-24T23:26:08;27.42;;;4.20;;
40629;SDS011;26329;40.388;-3.710;2023-08-24T23:36:08;32.03;;;7.28;;
40629;SDS011;26329;40.388;-3.710;2023-08-24T23:46:09;28.85;;;5.00;;
40629;SDS011;26329;40.388;-3.710;2023-08-24T23:56:10;22.10;;;3.38;;
